Lakki Marwat Weather



Lakki Marwat's Current Weather

Temprature 38.462o clear sky

clear sky

Rain: 0 %

Min Temprature38.462o
Max Temprature38.462o
Humidity26
Wind Speed4.05 m/h
Sun Rise05:10:18
Sun Set19:27:42
Current Time: 26-Jun-2019 14:55:34
Lat/Lon: 32.61, 70.91




Lakki Marwat's Geo Location



Lakki Marwat's Weather Forecast

Time Overall Temp Min Temp Max Temp Humidity Wind Speed Rain
26-Jun-2019 (Wed)
17:00:00 scattered clouds 36.850 36.850 36.850 20 2.96 m/h 0 %
20:00:00 clear sky 36.350 36.347 36.350 26 1.32 m/h 0 %
23:00:00 clear sky 35.240 35.240 35.240 35 1.07 m/h 0 %
27-Jun-2019 (Thu)
02:00:00 light rain 33.480 33.479 33.480 33 2.59 m/h 38 %
05:00:00 light rain 32.665 32.665 32.665 33 3.4 m/h 31 %
08:00:00 clear sky 36.150 36.150 36.150 25 2.44 m/h 0 %
11:00:00 clear sky 38.274 38.274 38.274 21 5.07 m/h 0 %
14:00:00 clear sky 40.050 40.050 40.050 18 3.77 m/h 0 %
17:00:00 scattered clouds 38.380 38.380 38.380 18 8.07 m/h 0 %
20:00:00 clear sky 35.194 35.194 35.194 26 5.23 m/h 0 %
23:00:00 clear sky 34.535 34.535 34.535 29 2.28 m/h 0 %
28-Jun-2019 (Fri)
02:00:00 clear sky 33.028 33.028 33.028 33 2 m/h 0 %
05:00:00 clear sky 32.228 32.228 32.228 32 4.39 m/h 0 %
08:00:00 clear sky 36.369 36.369 36.369 22 4.9 m/h 0 %
11:00:00 clear sky 39.325 39.325 39.325 16 4.76 m/h 0 %
14:00:00 clear sky 40.831 40.831 40.831 15 2.63 m/h 0 %
17:00:00 clear sky 41.750 41.750 41.750 13 3.23 m/h 0 %
20:00:00 clear sky 39.450 39.450 39.450 21 0.96 m/h 0 %
23:00:00 clear sky 37.872 37.872 37.872 18 2.16 m/h 0 %
29-Jun-2019 (Sat)
02:00:00 clear sky 36.072 36.072 36.072 20 2.26 m/h 0 %
05:00:00 clear sky 34.959 34.959 34.959 21 4.11 m/h 0 %
08:00:00 clear sky 38.287 38.287 38.287 18 2.83 m/h 0 %
11:00:00 clear sky 41.550 41.550 41.550 14 3.51 m/h 0 %
14:00:00 clear sky 43.050 43.050 43.050 13 2.51 m/h 0 %
17:00:00 clear sky 43.991 43.991 43.991 10 2.9 m/h 0 %
20:00:00 clear sky 41.450 41.450 41.450 14 1.88 m/h 0 %
23:00:00 clear sky 39.150 39.150 39.150 16 3.36 m/h 0 %
30-Jun-2019 (Sun)
02:00:00 clear sky 37.616 37.616 37.616 18 4.9 m/h 0 %
05:00:00 clear sky 35.012 35.012 35.012 21 7.01 m/h 0 %
08:00:00 clear sky 38.072 38.072 38.072 17 6.16 m/h 0 %
11:00:00 clear sky 41.218 41.218 41.218 15 5.76 m/h 0 %
14:00:00 clear sky 43.308 43.308 43.308 13 3.73 m/h 0 %
17:00:00 clear sky 44.050 44.050 44.050 12 1.87 m/h 0 %
20:00:00 clear sky 41.550 41.550 41.550 17 1.29 m/h 0 %
23:00:00 clear sky 39.250 39.250 39.250 19 1.04 m/h 0 %
01-Jul-2019 (Mon)
02:00:00 clear sky 37.250 37.250 37.250 22 0.38 m/h 0 %
05:00:00 clear sky 35.335 35.335 35.335 25 1.4 m/h 0 %
08:00:00 clear sky 39.850 39.850 39.850 17 1.56 m/h 0 %
11:00:00 clear sky 42.750 42.750 42.750 14 4.23 m/h 0 %
14:00:00 clear sky 44.850 44.850 44.850 12 2.67 m/h 0 %

Famous Cities (60)